Time;durP1;ratioP1;P1;durP2;ratioP2;P2;SDS_P1;SDS_P2;PMS_P1;PMS_P2;Temp;Humidity;BMP_temperature;BMP_pressure;BME280_temperature;BME280_humidity;BME280_pressure;Samples;Min_cycle;Max_cycle;Signal;HPM_P1;HPM_P2
2023/01/28 00:00:35;;;;;;;18.42;8.85;;;;;;;;;;5117036;28;20034;-80
2023/01/28 00:03:00;;;;;;;18.25;9.20;;;;;;;;;;5122700;28;20036;-80
2023/01/28 00:05:28;;;;;;;26.17;10.50;;;;;;;;;;5122609;28;20027;-79
2023/01/28 00:07:55;;;;;;;15.45;8.15;;;;;;;;;;5122574;28;20123;-79
2023/01/28 00:10:20;;;;;;;15.13;9.02;;;;;;;;;;5122942;28;20051;-79
2023/01/28 00:12:46;;;;;;;16.88;9.07;;;;;;;;;;5105185;28;20039;-80
2023/01/28 00:15:11;;;;;;;15.40;8.65;;;;;;;;;;5122647;28;20506;-80
2023/01/28 00:17:37;;;;;;;15.85;8.50;;;;;;;;;;5105180;28;20041;-80
2023/01/28 00:20:03;;;;;;;17.05;9.20;;;;;;;;;;5123116;28;20060;-80
2023/01/28 00:22:30;;;;;;;17.35;9.02;;;;;;;;;;5122640;28;20036;-80
2023/01/28 00:24:56;;;;;;;17.65;9.50;;;;;;;;;;5103852;28;20063;-80
2023/01/28 00:27:21;;;;;;;17.30;9.02;;;;;;;;;;5122619;28;20558;-81
2023/01/28 00:29:47;;;;;;;16.77;9.02;;;;;;;;;;5104362;28;20050;-80
2023/01/28 00:32:13;;;;;;;16.95;9.00;;;;;;;;;;5087041;28;20040;-80
2023/01/28 00:34:39;;;;;;;15.70;8.63;;;;;;;;;;5104138;28;20031;-81
2023/01/28 00:37:06;;;;;;;16.05;8.45;;;;;;;;;;5104128;28;20035;-79
2023/01/28 00:39:31;;;;;;;18.15;9.15;;;;;;;;;;5122074;28;20432;-80
2023/01/28 00:41:59;;;;;;;17.55;8.90;;;;;;;;;;5122612;28;20067;-80
2023/01/28 00:44:25;;;;;;;18.73;9.73;;;;;;;;;;5121952;28;20073;-80
2023/01/28 00:46:50;;;;;;;16.42;9.25;;;;;;;;;;5104278;28;20411;-80
2023/01/28 00:49:16;;;;;;;18.67;9.25;;;;;;;;;;5122565;28;20027;-80
2023/01/28 00:51:41;;;;;;;17.42;9.25;;;;;;;;;;5104466;28;20102;-80
2023/01/28 00:54:07;;;;;;;17.38;9.07;;;;;;;;;;5103651;28;20046;-79
2023/01/28 00:56:33;;;;;;;17.63;8.85;;;;;;;;;;5087432;28;20036;-81
2023/01/28 00:58:58;;;;;;;17.02;8.82;;;;;;;;;;5104125;28;20445;-80
2023/01/28 01:01:26;;;;;;;18.02;9.20;;;;;;;;;;5103459;28;20575;-80
2023/01/28 01:04:02;;;;;;;19.52;9.80;;;;;;;;;;5104107;28;20479;-80
2023/01/28 01:06:34;;;;;;;18.58;9.32;;;;;;;;;;5087302;28;20031;-80
2023/01/28 01:09:00;;;;;;;17.48;9.20;;;;;;;;;;5104421;28;20036;-80
2023/01/28 01:11:26;;;;;;;17.00;9.23;;;;;;;;;;5103924;28;20059;-80
2023/01/28 01:13:54;;;;;;;14.98;8.68;;;;;;;;;;5118111;28;20032;-80
2023/01/28 01:16:20;;;;;;;16.08;8.55;;;;;;;;;;5100323;28;20031;-79
2023/01/28 01:18:47;;;;;;;16.70;8.95;;;;;;;;;;5100942;28;20114;-80
2023/01/28 01:21:16;;;;;;;16.83;9.13;;;;;;;;;;5100782;28;20042;-80
2023/01/28 01:23:44;;;;;;;18.13;9.18;;;;;;;;;;5099646;28;20038;-80
2023/01/28 01:26:10;;;;;;;17.63;9.65;;;;;;;;;;5118544;28;20487;-80
2023/01/28 01:28:36;;;;;;;15.25;8.52;;;;;;;;;;5100709;28;20080;-80
2023/01/28 01:31:07;;;;;;;17.05;9.23;;;;;;;;;;5100795;28;20043;-80
2023/01/28 01:33:34;;;;;;;20.48;9.68;;;;;;;;;;5118599;28;20039;-80
2023/01/28 01:35:59;;;;;;;19.10;9.55;;;;;;;;;;5100072;28;20373;-80
2023/01/28 01:38:26;;;;;;;19.23;9.45;;;;;;;;;;5083469;28;20092;-80
2023/01/28 01:40:51;;;;;;;17.73;10.02;;;;;;;;;;5118612;28;20031;-80
2023/01/28 01:43:19;;;;;;;18.63;9.32;;;;;;;;;;5118149;28;20495;-79
2023/01/28 01:45:49;;;;;;;19.45;9.30;;;;;;;;;;5100217;28;20027;-80
2023/01/28 01:48:26;;;;;;;20.00;10.30;;;;;;;;;;5099987;28;20031;-80
2023/01/28 01:51:00;;;;;;;16.92;9.00;;;;;;;;;;5100351;28;20479;-79
2023/01/28 01:53:27;;;;;;;19.45;9.18;;;;;;;;;;5118321;28;20038;-80
2023/01/28 01:55:59;;;;;;;17.85;9.32;;;;;;;;;;5099842;28;20023;-80
2023/01/28 01:58:28;;;;;;;18.75;9.60;;;;;;;;;;5100064;28;20035;-80
2023/01/28 02:00:54;;;;;;;17.50;9.55;;;;;;;;;;5099803;28;20035;-80
2023/01/28 02:03:30;;;;;;;17.02;9.45;;;;;;;;;;5100092;28;20032;-80
2023/01/28 02:05:55;;;;;;;18.48;9.52;;;;;;;;;;5117688;28;20035;-80
2023/01/28 02:08:21;;;;;;;18.67;9.52;;;;;;;;;;5083017;28;20042;-80
2023/01/28 02:11:08;;;;;;;21.17;9.80;;;;;;;;;;5099510;28;20089;-80
2023/01/28 02:13:39;;;;;;;19.90;9.45;;;;;;;;;;5118104;28;20130;-80
2023/01/28 02:16:06;;;;;;;18.77;9.63;;;;;;;;;;5099005;28;20118;-80
2023/01/28 02:18:32;;;;;;;18.65;9.48;;;;;;;;;;5098750;28;20035;-79
2023/01/28 02:21:13;;;;;;;20.52;9.68;;;;;;;;;;5118242;28;20447;-82
2023/01/28 02:24:06;;;;;;;17.73;9.52;;;;;;;;;;5117459;28;20070;-79
2023/01/28 02:26:46;;;;;;;19.83;10.30;;;;;;;;;;5098751;28;20024;-82
2023/01/28 02:29:30;;;;;;;20.17;9.25;;;;;;;;;;5117661;28;20036;-79
2023/01/28 02:32:03;;;;;;;21.70;8.85;;;;;;;;;;5099344;28;20097;-80
2023/01/28 02:35:06;;;;;;;18.42;9.20;;;;;;;;;;5081929;28;20652;-82
2023/01/28 02:37:54;;;;;;;20.23;10.02;;;;;;;;;;5095111;28;20051;-82
2023/01/28 02:40:26;;;;;;;21.45;9.50;;;;;;;;;;5097732;28;20138;-82
2023/01/28 02:42:52;;;;;;;25.63;11.15;;;;;;;;;;5081695;28;20039;-81
2023/01/28 02:47:56;;;;;;;23.50;11.13;;;;;;;;;;5098323;28;20024;-82
2023/01/28 02:48:12;;;;;;;24.13;10.43;;;;;;;;;;5098131;28;20035;-81
2023/01/28 02:50:56;;;;;;;23.42;10.50;;;;;;;;;;5116654;28;20034;-81
2023/01/28 02:53:50;;;;;;;24.05;11.90;;;;;;;;;;5097541;28;20434;-81
2023/01/28 02:56:34;;;;;;;22.25;11.07;;;;;;;;;;5061069;28;20044;-81
2023/01/28 02:59:32;;;;;;;23.85;10.95;;;;;;;;;;5097279;28;20035;-81
2023/01/28 03:02:12;;;;;;;24.45;11.07;;;;;;;;;;5098038;28;20066;-81
2023/01/28 03:04:48;;;;;;;26.10;11.90;;;;;;;;;;5116083;28;20479;-81
2023/01/28 03:07:18;;;;;;;25.83;11.50;;;;;;;;;;5097914;28;20080;-81
2023/01/28 03:09:47;;;;;;;26.15;11.45;;;;;;;;;;5116097;28;20043;-81
2023/01/28 03:38:32;;;;;;;23.42;11.05;;;;;;;;;;5098191;28;20846;-80
2023/01/28 03:41:01;;;;;;;23.90;11.27;;;;;;;;;;5097208;28;20031;-80
2023/01/28 03:43:30;;;;;;;23.88;11.20;;;;;;;;;;5080835;28;20032;-80
2023/01/28 03:45:56;;;;;;;23.40;11.30;;;;;;;;;;5116206;28;20059;-80
2023/01/28 03:48:24;;;;;;;26.02;11.13;;;;;;;;;;5098125;28;20096;-80
2023/01/28 03:50:50;;;;;;;23.85;11.27;;;;;;;;;;5115980;28;20088;-80
2023/01/28 03:53:17;;;;;;;25.83;11.90;;;;;;;;;;5097556;28;20031;-80
2023/01/28 03:55:51;;;;;;;22.27;10.48;;;;;;;;;;5097537;28;20079;-80
2023/01/28 03:58:18;;;;;;;24.40;11.35;;;;;;;;;;5098069;28;20468;-80
2023/01/28 04:00:44;;;;;;;21.75;10.60;;;;;;;;;;5097813;28;20027;-80
2023/01/28 04:03:17;;;;;;;23.45;11.30;;;;;;;;;;5097330;28;20043;-80
2023/01/28 04:06:04;;;;;;;25.58;11.40;;;;;;;;;;5097935;28;20028;-80
2023/01/28 04:08:57;;;;;;;22.33;9.93;;;;;;;;;;5083538;28;20039;-80
2023/01/28 04:11:30;;;;;;;23.38;10.65;;;;;;;;;;5081775;28;20116;-80
2023/01/28 04:13:58;;;;;;;22.40;10.27;;;;;;;;;;5096431;28;20036;-80
2023/01/28 04:16:26;;;;;;;22.70;10.98;;;;;;;;;;5097120;28;20059;-80
2023/01/28 04:18:52;;;;;;;20.50;10.60;;;;;;;;;;5097070;28;20042;-79
2023/01/28 04:21:18;;;;;;;25.52;11.27;;;;;;;;;;5096588;28;20039;-79
2023/01/28 04:23:44;;;;;;;22.25;10.40;;;;;;;;;;5096944;28;20035;-80
2023/01/28 04:26:12;;;;;;;22.38;10.40;;;;;;;;;;5096431;28;20028;-80
2023/01/28 04:28:37;;;;;;;21.50;10.85;;;;;;;;;;5096902;28;20028;-79
2023/01/28 04:31:04;;;;;;;23.27;11.30;;;;;;;;;;5096588;28;20511;-80
2023/01/28 04:33:43;;;;;;;23.90;10.35;;;;;;;;;;5097122;28;20027;-80
2023/01/28 04:36:18;;;;;;;21.83;10.57;;;;;;;;;;5096294;28;20038;-80
2023/01/28 04:39:10;;;;;;;20.77;10.00;;;;;;;;;;5096529;28;20028;-80
2023/01/28 04:41:35;;;;;;;22.27;10.23;;;;;;;;;;5114779;28;20100;-80
2023/01/28 04:44:07;;;;;;;22.70;10.77;;;;;;;;;;5096414;28;20032;-80
2023/01/28 04:47:04;;;;;;;19.52;9.38;;;;;;;;;;5080861;28;20031;-80
2023/01/28 04:49:39;;;;;;;20.40;9.82;;;;;;;;;;5100191;28;20043;-80
2023/01/28 04:52:31;;;;;;;23.10;10.18;;;;;;;;;;5080392;28;20503;-80
2023/01/28 04:55:07;;;;;;;24.42;11.18;;;;;;;;;;5099529;28;20027;-80
2023/01/28 04:57:32;;;;;;;23.83;10.95;;;;;;;;;;5099531;28;20028;-79
2023/01/28 04:59:58;;;;;;;22.83;10.48;;;;;;;;;;5099561;28;20074;-80
2023/01/28 05:02:25;;;;;;;21.88;9.93;;;;;;;;;;5099848;28;20032;-80
2023/01/28 05:04:51;;;;;;;23.30;10.15;;;;;;;;;;5099822;28;20027;-80
2023/01/28 05:07:56;;;;;;;20.15;9.68;;;;;;;;;;5096989;28;20047;-80
2023/01/28 05:10:31;;;;;;;22.35;9.68;;;;;;;;;;5061658;28;1080313;-80
2023/01/28 05:12:57;;;;;;;21.33;9.23;;;;;;;;;;5100853;28;20032;-80
2023/01/28 05:15:22;;;;;;;20.63;9.70;;;;;;;;;;5100469;28;20034;-79
2023/01/28 05:17:53;;;;;;;25.17;9.77;;;;;;;;;;5100847;28;20027;-80
2023/01/28 05:20:20;;;;;;;21.83;10.00;;;;;;;;;;5100277;28;20037;-79
2023/01/28 05:22:48;;;;;;;20.52;10.30;;;;;;;;;;5099990;28;20028;-80
2023/01/28 05:25:20;;;;;;;19.42;9.73;;;;;;;;;;5099554;28;20024;-80
2023/01/28 05:27:50;;;;;;;22.15;10.30;;;;;;;;;;5100061;28;20028;-80
2023/01/28 05:30:20;;;;;;;23.40;9.98;;;;;;;;;;5100362;28;20028;-79
2023/01/28 05:32:45;;;;;;;20.73;8.95;;;;;;;;;;5083499;28;20019;-80
2023/01/28 05:35:13;;;;;;;22.15;9.93;;;;;;;;;;5083307;28;20070;-79
2023/01/28 05:37:39;;;;;;;21.85;9.65;;;;;;;;;;5100600;28;20085;-79
2023/01/28 05:40:05;;;;;;;23.42;10.18;;;;;;;;;;5099931;28;20060;-80
2023/01/28 05:42:31;;;;;;;26.45;9.90;;;;;;;;;;5099944;28;20380;-80
2023/01/28 05:45:10;;;;;;;20.55;9.30;;;;;;;;;;5100167;28;20394;-80
2023/01/28 05:47:40;;;;;;;21.38;9.90;;;;;;;;;;5100222;28;20571;-80
2023/01/28 05:50:36;;;;;;;20.58;9.82;;;;;;;;;;5100002;28;20015;-80
2023/01/28 05:53:16;;;;;;;18.52;9.30;;;;;;;;;;5100155;28;20040;-80
2023/01/28 05:55:50;;;;;;;22.27;9.77;;;;;;;;;;5099201;28;20522;-80
2023/01/28 05:58:16;;;;;;;20.40;9.85;;;;;;;;;;5099655;28;20058;-80
2023/01/28 06:00:42;;;;;;;22.25;10.43;;;;;;;;;;5098129;28;20073;-80
2023/01/28 06:03:08;;;;;;;21.73;10.32;;;;;;;;;;5085603;28;20020;-80
2023/01/28 06:05:35;;;;;;;19.38;9.82;;;;;;;;;;5078766;28;20028;-80
2023/01/28 06:08:00;;;;;;;21.50;9.63;;;;;;;;;;5079138;28;20182;-80
2023/01/28 06:10:26;;;;;;;19.88;9.43;;;;;;;;;;5062529;28;20036;-80
2023/01/28 06:12:54;;;;;;;22.05;9.50;;;;;;;;;;5079018;28;20067;-80
2023/01/28 06:15:38;;;;;;;21.83;9.50;;;;;;;;;;5097348;28;20694;-80
2023/01/28 06:18:33;;;;;;;19.80;9.20;;;;;;;;;;5041346;28;20510;-80
2023/01/28 06:20:59;;;;;;;19.25;9.63;;;;;;;;;;5078645;28;20043;-82
2023/01/28 06:23:24;;;;;;;19.15;9.23;;;;;;;;;;5078112;28;20054;-82
2023/01/28 06:25:54;;;;;;;20.30;9.63;;;;;;;;;;5077770;28;20488;-81
2023/01/28 06:28:20;;;;;;;22.10;9.48;;;;;;;;;;5078206;28;20028;-81
2023/01/28 06:30:50;;;;;;;20.20;9.93;;;;;;;;;;5078298;28;20400;-80
2023/01/28 06:33:17;;;;;;;19.00;9.75;;;;;;;;;;5077124;28;20032;-81
2023/01/28 06:35:42;;;;;;;19.48;9.95;;;;;;;;;;5095171;28;20484;-81
2023/01/28 06:38:08;;;;;;;21.33;10.40;;;;;;;;;;5096372;28;20120;-80
2023/01/28 06:40:34;;;;;;;19.75;9.45;;;;;;;;;;5095502;28;20110;-81
2023/01/28 06:42:59;;;;;;;19.42;9.43;;;;;;;;;;5095822;28;20160;-80
2023/01/28 06:45:25;;;;;;;22.67;11.00;;;;;;;;;;5095443;28;20479;-81
2023/01/28 06:47:50;;;;;;;17.95;9.52;;;;;;;;;;5077638;28;20036;-82
2023/01/28 06:50:16;;;;;;;21.30;9.85;;;;;;;;;;5095110;28;20090;-81
2023/01/28 06:52:42;;;;;;;24.60;10.90;;;;;;;;;;5095640;28;20032;-81
2023/01/28 06:55:08;;;;;;;23.88;11.70;;;;;;;;;;5095512;28;20036;-81
2023/01/28 06:57:33;;;;;;;21.48;11.40;;;;;;;;;;5095573;28;20036;-81
2023/01/28 06:59:59;;;;;;;26.13;13.30;;;;;;;;;;5095250;28;20039;-81
2023/01/28 07:02:24;;;;;;;25.20;11.75;;;;;;;;;;5095053;28;20028;-81
2023/01/28 07:04:50;;;;;;;23.05;11.10;;;;;;;;;;5095367;28;20564;-80
2023/01/28 07:07:15;;;;;;;22.20;10.88;;;;;;;;;;5094782;28;20050;-81
2023/01/28 07:09:40;;;;;;;23.02;9.80;;;;;;;;;;5094499;28;20123;-81
2023/01/28 07:12:06;;;;;;;21.95;10.20;;;;;;;;;;5076002;28;20036;-79
2023/01/28 07:14:32;;;;;;;24.55;10.65;;;;;;;;;;5077471;28;20491;-80
2023/01/28 07:16:57;;;;;;;21.10;10.13;;;;;;;;;;5094238;28;20395;-81
2023/01/28 07:19:23;;;;;;;23.92;10.75;;;;;;;;;;5095981;28;20028;-80
2023/01/28 07:21:48;;;;;;;21.98;10.27;;;;;;;;;;5094923;28;20053;-80
2023/01/28 07:24:13;;;;;;;22.50;10.60;;;;;;;;;;5095378;28;20514;-80
2023/01/28 07:26:39;;;;;;;22.35;10.55;;;;;;;;;;5096220;28;20487;-80
2023/01/28 07:29:04;;;;;;;23.83;10.35;;;;;;;;;;5096095;28;20372;-80
2023/01/28 07:31:30;;;;;;;19.27;9.75;;;;;;;;;;5096092;28;20043;-80
2023/01/28 07:33:56;;;;;;;19.15;9.52;;;;;;;;;;5061218;28;20035;-79
2023/01/28 07:36:21;;;;;;;25.38;10.27;;;;;;;;;;5096179;28;20067;-80
2023/01/28 07:38:47;;;;;;;22.50;10.15;;;;;;;;;;5095623;28;20086;-80
2023/01/28 07:41:12;;;;;;;19.60;9.45;;;;;;;;;;5094926;28;20061;-80
2023/01/28 07:43:38;;;;;;;22.63;11.18;;;;;;;;;;5078367;28;20393;-79
2023/01/28 07:46:03;;;;;;;25.13;13.35;;;;;;;;;;5095827;28;20074;-80
2023/01/28 07:48:29;;;;;;;22.02;11.77;;;;;;;;;;5077727;28;20032;-79
2023/01/28 07:50:57;;;;;;;24.42;11.82;;;;;;;;;;5095532;28;20035;-80
2023/01/28 07:53:23;;;;;;;22.50;11.73;;;;;;;;;;5096259;28;20031;-80
2023/01/28 07:55:49;;;;;;;23.40;10.55;;;;;;;;;;5095022;28;20123;-80
2023/01/28 07:58:14;;;;;;;19.38;9.52;;;;;;;;;;5094773;28;20142;-80
2023/01/28 08:00:40;;;;;;;22.30;10.50;;;;;;;;;;5060323;28;20511;-80
2023/01/28 08:03:14;;;;;;;20.95;10.93;;;;;;;;;;5096089;28;20525;-80
2023/01/28 08:05:46;;;;;;;24.77;11.70;;;;;;;;;;5076599;28;20031;-80
2023/01/28 08:08:12;;;;;;;27.30;12.48;;;;;;;;;;5077321;28;20031;-80
2023/01/28 08:10:39;;;;;;;22.67;10.48;;;;;;;;;;5094772;28;20653;-80
2023/01/28 08:13:05;;;;;;;23.63;10.43;;;;;;;;;;5095296;28;20423;-80
2023/01/28 08:15:30;;;;;;;23.55;10.95;;;;;;;;;;5095447;28;20028;-80
2023/01/28 08:17:57;;;;;;;24.38;11.05;;;;;;;;;;5077316;28;20602;-81
2023/01/28 08:20:24;;;;;;;25.90;10.98;;;;;;;;;;5095042;28;20056;-80
2023/01/28 08:22:50;;;;;;;21.92;10.82;;;;;;;;;;5096386;28;20111;-79
2023/01/28 08:25:15;;;;;;;23.52;10.73;;;;;;;;;;5100016;28;20063;-80
2023/01/28 08:27:41;;;;;;;22.88;12.15;;;;;;;;;;5098874;28;20047;-80
2023/01/28 08:30:08;;;;;;;21.33;11.00;;;;;;;;;;5098675;28;20036;-79
2023/01/28 08:32:37;;;;;;;22.48;11.73;;;;;;;;;;5063873;28;20027;-80
2023/01/28 08:35:04;;;;;;;22.38;11.85;;;;;;;;;;5098440;28;20099;-82
2023/01/28 08:37:29;;;;;;;24.60;11.30;;;;;;;;;;5080298;28;20042;-81
2023/01/28 08:39:55;;;;;;;45.60;22.65;;;;;;;;;;5097569;28;20028;-82
2023/01/28 08:42:20;;;;;;;45.42;23.85;;;;;;;;;;5097829;28;20491;-80
2023/01/28 08:44:47;;;;;;;30.73;16.48;;;;;;;;;;5097873;28;20431;-80
2023/01/28 08:47:15;;;;;;;26.90;14.45;;;;;;;;;;5098474;28;20036;-80
2023/01/28 08:49:41;;;;;;;22.98;12.20;;;;;;;;;;5080102;28;20039;-80
2023/01/28 08:52:06;;;;;;;17.23;8.75;;;;;;;;;;5098515;28;20048;-79
2023/01/28 08:54:32;;;;;;;20.15;10.77;;;;;;;;;;5100925;28;20054;-81
2023/01/28 08:56:57;;;;;;;21.30;11.38;;;;;;;;;;5101519;28;20060;-80
2023/01/28 08:59:23;;;;;;;22.60;11.70;;;;;;;;;;5082661;28;20028;-80
2023/01/28 09:01:50;;;;;;;20.55;10.57;;;;;;;;;;5101585;28;20484;-80
2023/01/28 09:04:15;;;;;;;22.10;11.23;;;;;;;;;;5083810;28;20036;-80
2023/01/28 09:06:41;;;;;;;27.42;14.50;;;;;;;;;;5102272;28;20392;-79
2023/01/28 09:09:06;;;;;;;29.40;16.83;;;;;;;;;;5072986;28;20043;-80
2023/01/28 09:11:31;;;;;;;25.10;12.70;;;;;;;;;;5121810;28;20469;-80
2023/01/28 09:13:57;;;;;;;21.60;11.63;;;;;;;;;;5121648;28;20035;-79
2023/01/28 09:16:23;;;;;;;24.15;12.15;;;;;;;;;;5121446;28;20039;-80
2023/01/28 09:18:50;;;;;;;23.63;11.57;;;;;;;;;;5086918;28;20032;-80
2023/01/28 09:21:16;;;;;;;21.95;11.63;;;;;;;;;;5120969;28;20067;-80
2023/01/28 09:23:42;;;;;;;24.13;11.35;;;;;;;;;;5103258;28;20039;-80
2023/01/28 09:26:08;;;;;;;26.13;12.60;;;;;;;;;;5120728;28;20016;-80
2023/01/28 09:28:34;;;;;;;29.63;13.63;;;;;;;;;;5120472;28;20556;-80
2023/01/28 09:31:05;;;;;;;24.75;12.50;;;;;;;;;;5120680;28;20030;-80
2023/01/28 09:33:31;;;;;;;26.92;12.55;;;;;;;;;;5119947;28;20043;-80
2023/01/28 09:36:04;;;;;;;24.17;12.30;;;;;;;;;;5101713;28;20399;-79
2023/01/28 09:38:30;;;;;;;27.73;13.20;;;;;;;;;;5121111;28;20031;-80
2023/01/28 09:40:57;;;;;;;23.80;11.98;;;;;;;;;;5120812;28;20122;-80
2023/01/28 09:43:48;;;;;;;21.23;10.50;;;;;;;;;;5121157;28;20096;-79
2023/01/28 09:46:17;;;;;;;22.33;11.70;;;;;;;;;;5106400;28;20110;-81
2023/01/28 09:48:49;;;;;;;21.90;11.35;;;;;;;;;;5106652;28;20039;-79
2023/01/28 09:51:28;;;;;;;23.73;11.60;;;;;;;;;;5124258;28;20381;-80
2023/01/28 09:53:56;;;;;;;23.50;11.18;;;;;;;;;;5123316;28;20036;-79
2023/01/28 09:56:27;;;;;;;25.17;11.75;;;;;;;;;;5105905;28;20050;-79
2023/01/28 09:58:53;;;;;;;23.23;11.38;;;;;;;;;;5124535;28;20034;-79
2023/01/28 10:01:46;;;;;;;22.33;11.18;;;;;;;;;;5124101;28;20039;-80
2023/01/28 10:04:50;;;;;;;20.40;10.70;;;;;;;;;;5123274;28;20027;-79
2023/01/28 10:07:28;;;;;;;18.88;9.65;;;;;;;;;;5077290;28;20048;-79
2023/01/28 10:10:14;;;;;;;22.40;10.77;;;;;;;;;;5124495;28;20096;-80
2023/01/28 10:13:02;;;;;;;25.15;10.95;;;;;;;;;;5106656;28;20065;-79
2023/01/28 10:16:00;;;;;;;22.70;10.52;;;;;;;;;;5124223;28;20438;-79
2023/01/28 10:18:38;;;;;;;21.23;10.52;;;;;;;;;;5097630;28;20040;-79
2023/01/28 10:21:14;;;;;;;23.10;11.63;;;;;;;;;;5125127;28;20047;-79
2023/01/28 10:23:52;;;;;;;21.80;10.40;;;;;;;;;;5089232;28;20061;-79
2023/01/28 10:26:33;;;;;;;22.33;11.10;;;;;;;;;;5124286;28;20115;-80
2023/01/28 10:29:03;;;;;;;21.23;10.65;;;;;;;;;;5119837;28;20403;-80
2023/01/28 10:31:34;;;;;;;23.20;10.95;;;;;;;;;;5100937;28;20035;-80
2023/01/28 10:34:01;;;;;;;21.08;10.32;;;;;;;;;;5119605;28;20063;-81
2023/01/28 10:36:28;;;;;;;22.60;9.98;;;;;;;;;;5100863;28;20042;-81
2023/01/28 10:38:53;;;;;;;21.92;11.50;;;;;;;;;;5100441;28;20031;-80
2023/01/28 10:41:21;;;;;;;22.25;10.85;;;;;;;;;;5099648;28;20035;-80
2023/01/28 10:43:48;;;;;;;23.15;10.63;;;;;;;;;;5100255;28;20126;-79
2023/01/28 10:46:22;;;;;;;19.42;9.68;;;;;;;;;;5118171;28;20487;-80
2023/01/28 10:48:56;;;;;;;21.00;10.45;;;;;;;;;;5100256;28;20118;-80
2023/01/28 10:51:39;;;;;;;20.90;10.23;;;;;;;;;;5110625;28;20490;-80
2023/01/28 10:54:23;;;;;;;19.15;9.98;;;;;;;;;;5094451;28;20036;-79
2023/01/28 10:56:53;;;;;;;19.00;9.73;;;;;;;;;;5105121;28;20044;-79
2023/01/28 10:59:28;;;;;;;20.65;10.13;;;;;;;;;;5082877;28;20028;-78
2023/01/28 11:01:58;;;;;;;20.23;10.05;;;;;;;;;;5102926;28;20079;-79
2023/01/28 11:04:32;;;;;;;20.15;9.90;;;;;;;;;;5103151;28;20043;-80
2023/01/28 11:07:23;;;;;;;21.10;10.25;;;;;;;;;;5104702;28;20058;-80
2023/01/28 11:09:50;;;;;;;21.13;10.48;;;;;;;;;;5094806;28;20488;-81
2023/01/28 11:12:24;;;;;;;19.02;9.38;;;;;;;;;;5144960;22;20058;-84
2023/01/28 11:15:01;;;;;;;18.83;9.95;;;;;;;;;;5112802;28;20429;-83
2023/01/28 11:17:29;;;;;;;18.60;9.30;;;;;;;;;;5117695;28;20035;-81
2023/01/28 11:19:58;;;;;;;21.02;10.80;;;;;;;;;;5122954;28;20126;-83
2023/01/28 11:22:37;;;;;;;23.08;11.43;;;;;;;;;;5117008;28;20032;-83
2023/01/28 11:25:14;;;;;;;18.50;9.98;;;;;;;;;;5115736;28;20637;-84
2023/01/28 11:27:45;;;;;;;18.17;9.38;;;;;;;;;;5115381;28;20536;-83
2023/01/28 11:30:27;;;;;;;22.05;9.50;;;;;;;;;;5097204;28;20028;-84
2023/01/28 11:33:11;;;;;;;18.00;10.00;;;;;;;;;;5116265;28;20039;-82
2023/01/28 11:35:36;;;;;;;17.92;8.55;;;;;;;;;;5115681;28;20067;-84
2023/01/28 11:38:02;;;;;;;19.30;8.10;;;;;;;;;;5116128;28;20043;-83
2023/01/28 11:40:28;;;;;;;17.10;8.63;;;;;;;;;;5114937;28;20429;-82
2023/01/28 11:42:58;;;;;;;17.45;8.60;;;;;;;;;;5081444;28;20028;-83
2023/01/28 11:45:42;;;;;;;19.95;8.60;;;;;;;;;;5117553;28;20032;-83
2023/01/28 11:48:38;;;;;;;18.60;10.18;;;;;;;;;;5117745;28;20106;-84
2023/01/28 11:51:21;;;;;;;18.45;10.00;;;;;;;;;;5117031;28;20035;-83
2023/01/28 11:54:05;;;;;;;21.48;11.40;;;;;;;;;;5118129;28;20035;-83
2023/01/28 11:56:45;;;;;;;21.40;11.40;;;;;;;;;;5117773;28;20039;-83
2023/01/28 11:59:31;;;;;;;19.77;10.63;;;;;;;;;;5099936;28;20036;-83
2023/01/28 12:02:15;;;;;;;17.40;8.60;;;;;;;;;;5118167;28;20087;-84
2023/01/28 12:04:47;;;;;;;17.15;8.60;;;;;;;;;;5116995;28;20038;-83
2023/01/28 12:07:22;;;;;;;17.67;8.80;;;;;;;;;;5118661;28;20043;-83
2023/01/28 12:10:16;;;;;;;16.98;8.45;;;;;;;;;;5096795;28;20046;-84
2023/01/28 12:13:02;;;;;;;17.33;9.15;;;;;;;;;;5114314;28;20126;-84
2023/01/28 12:15:36;;;;;;;16.02;8.65;;;;;;;;;;5078805;28;20040;-84
2023/01/28 12:18:10;;;;;;;;;;;;;;;;;;5114187;28;20514;-82
2023/01/28 12:21:07;;;;;;;16.02;7.93;;;;;;;;;;5113254;28;19911;-84
2023/01/28 12:23:46;;;;;;;17.10;8.27;;;;;;;;;;5095759;28;20475;-84
2023/01/28 12:26:15;;;;;;;18.20;8.60;;;;;;;;;;5095922;28;20052;-84
2023/01/28 12:28:41;;;;;;;17.65;9.27;;;;;;;;;;5080097;28;20099;-83
2023/01/28 12:31:13;;;;;;;18.92;8.75;;;;;;;;;;5114579;28;20515;-84
2023/01/28 12:34:03;;;;;;;18.42;9.27;;;;;;;;;;5116141;28;20038;-82
2023/01/28 12:36:28;;;;;;;17.92;8.13;;;;;;;;;;5101380;28;20043;-85
2023/01/28 12:38:57;;;;;;;19.52;9.40;;;;;;;;;;5096798;28;20403;-84
2023/01/28 12:41:27;;;;;;;19.13;9.38;;;;;;;;;;5114812;28;20082;-85
2023/01/28 12:44:09;;;;;;;20.08;9.55;;;;;;;;;;5115254;28;20031;-83
2023/01/28 12:46:51;;;;;;;21.13;10.07;;;;;;;;;;5097306;28;20115;-83
2023/01/28 12:49:22;;;;;;;26.45;12.30;;;;;;;;;;5115787;28;20495;-83
2023/01/28 12:52:00;;;;;;;31.40;13.77;;;;;;;;;;5097546;28;20107;-83
2023/01/28 12:54:30;;;;;;;18.90;9.55;;;;;;;;;;5097592;28;20565;-83
2023/01/28 12:56:57;;;;;;;22.67;10.65;;;;;;;;;;5097980;28;20031;-84
2023/01/28 12:59:28;;;;;;;27.13;13.15;;;;;;;;;;5116066;28;20042;-84
2023/01/28 13:02:12;;;;;;;20.15;10.35;;;;;;;;;;5115932;28;20035;-85
2023/01/28 13:04:57;;;;;;;26.90;11.98;;;;;;;;;;5116004;28;20023;-85
2023/01/28 13:07:31;;;;;;;23.58;12.05;;;;;;;;;;5098157;28;20046;-83
2023/01/28 13:10:10;;;;;;;24.95;12.13;;;;;;;;;;5103408;28;20055;-84
2023/01/28 13:12:39;;;;;;;21.88;11.05;;;;;;;;;;5099794;28;20039;-83
2023/01/28 13:15:10;;;;;;;31.63;14.13;;;;;;;;;;5118942;28;20031;-83
2023/01/28 13:17:35;;;;;;;29.52;12.50;;;;;;;;;;5099715;28;20404;-83
2023/01/28 13:20:13;;;;;;;28.13;12.43;;;;;;;;;;5099214;28;20023;-84
2023/01/28 13:22:39;;;;;;;24.30;11.65;;;;;;;;;;5116995;28;20032;-84
2023/01/28 13:25:23;;;;;;;21.67;11.38;;;;;;;;;;5098990;28;20028;-84
2023/01/28 13:28:04;;;;;;;24.33;11.65;;;;;;;;;;5098763;28;20134;-84
2023/01/28 13:30:32;;;;;;;25.70;12.32;;;;;;;;;;5117145;28;20035;-83
2023/01/28 13:33:03;;;;;;;22.20;10.77;;;;;;;;;;5117201;28;20044;-83
2023/01/28 13:35:38;;;;;;;18.90;9.50;;;;;;;;;;5116444;28;20028;-83
2023/01/28 13:38:16;;;;;;;19.77;9.32;;;;;;;;;;5116096;28;20044;-83
2023/01/28 13:40:43;;;;;;;17.83;9.32;;;;;;;;;;5115539;28;20036;-84
2023/01/28 13:43:33;;;;;;;21.70;9.68;;;;;;;;;;5115887;28;20031;-83
2023/01/28 13:46:22;;;;;;;19.25;9.93;;;;;;;;;;5115735;28;20115;-83
2023/01/28 13:48:50;;;;;;;20.65;10.68;;;;;;;;;;5114720;28;20082;-82
2023/01/28 13:51:23;;;;;;;18.80;9.27;;;;;;;;;;5127653;28;20383;-83
2023/01/28 13:54:01;;;;;;;18.73;9.50;;;;;;;;;;5116803;28;20090;-84
2023/01/28 13:56:31;;;;;;;20.00;10.60;;;;;;;;;;5099664;28;20040;-85
2023/01/28 13:59:32;;;;;;;21.80;10.45;;;;;;;;;;5118086;28;20055;-84
2023/01/28 14:02:16;;;;;;;21.50;10.68;;;;;;;;;;5037909;28;20299;-83
2023/01/28 14:04:48;;;;;;;21.08;10.35;;;;;;;;;;5119053;28;20054;-84
2023/01/28 14:07:52;;;;;;;21.30;10.93;;;;;;;;;;5103905;28;20035;-84
2023/01/28 14:10:35;;;;;;;26.20;12.52;;;;;;;;;;5118884;28;20118;-85
2023/01/28 14:13:25;;;;;;;28.63;13.47;;;;;;;;;;5100270;28;20043;-84
2023/01/28 14:16:18;;;;;;;26.63;12.43;;;;;;;;;;5121286;28;20036;-84
2023/01/28 14:18:46;;;;;;;27.40;13.02;;;;;;;;;;5118014;28;20032;-84
2023/01/28 14:21:15;;;;;;;23.17;11.30;;;;;;;;;;5098879;28;20039;-85
2023/01/28 14:24:18;;;;;;;21.92;11.55;;;;;;;;;;5099779;28;20514;-84
2023/01/28 14:27:06;;;;;;;22.00;10.00;;;;;;;;;;5077028;28;20048;-84
2023/01/28 14:29:37;;;;;;;22.15;10.63;;;;;;;;;;5099390;28;20085;-84
2023/01/28 14:32:13;;;;;;;22.40;11.05;;;;;;;;;;5082300;28;20035;-83
2023/01/28 14:34:41;;;;;;;22.30;10.73;;;;;;;;;;5117063;28;20372;-84
2023/01/28 14:37:11;;;;;;;23.80;11.05;;;;;;;;;;5117300;28;20047;-85
2023/01/28 14:39:59;;;;;;;24.25;11.73;;;;;;;;;;5081968;28;20031;-84
2023/01/28 14:42:30;;;;;;;23.00;11.40;;;;;;;;;;5098025;28;20039;-84
2023/01/28 14:44:55;;;;;;;25.92;11.57;;;;;;;;;;5098592;28;20035;-83
2023/01/28 14:47:42;;;;;;;21.00;10.93;;;;;;;;;;5116774;28;20039;-84
2023/01/28 14:50:16;;;;;;;23.23;11.68;;;;;;;;;;5116608;28;20047;-83
2023/01/28 14:52:48;;;;;;;21.63;10.70;;;;;;;;;;5080913;28;20042;-84
2023/01/28 14:55:41;;;;;;;21.35;11.07;;;;;;;;;;5115763;28;20081;-82
2023/01/28 14:58:21;;;;;;;26.13;11.80;;;;;;;;;;5115323;28;20042;-83
2023/01/28 15:00:55;;;;;;;25.65;10.60;;;;;;;;;;5097541;28;20611;-82
2023/01/28 15:03:21;;;;;;;26.70;11.88;;;;;;;;;;5115470;28;20028;-82
2023/01/28 15:05:47;;;;;;;19.13;9.52;;;;;;;;;;5114954;28;20027;-80
2023/01/28 15:08:20;;;;;;;23.73;10.95;;;;;;;;;;5124897;28;20415;-80
2023/01/28 15:10:46;;;;;;;24.52;10.98;;;;;;;;;;5116034;28;20031;-81
2023/01/28 15:13:28;;;;;;;24.23;11.27;;;;;;;;;;5116465;28;20106;-83
2023/01/28 15:15:57;;;;;;;20.88;10.77;;;;;;;;;;5115981;28;20027;-82
2023/01/28 15:18:32;;;;;;;22.58;11.20;;;;;;;;;;5098195;28;20064;-81